sensor_id;sensor_type;location;lat;lon;timestamp;pressure;altitude;pressure_sealevel;temperature;humidity
25947;BME280;13745;51.470;9.894;2023-09-30T00:00:35;100085.47;;;15.89;nan
25947;BME280;13745;51.470;9.894;2023-09-30T00:03:20;100081.22;;;15.85;nan
25947;BME280;13745;51.470;9.894;2023-09-30T00:06:06;100090.09;;;15.79;nan
25947;BME280;13745;51.470;9.894;2023-09-30T00:08:52;100092.69;;;15.73;nan
25947;BME280;13745;51.470;9.894;2023-09-30T00:14:22;65797.28;;;22.89;nan
25947;BME280;13745;51.470;9.894;2023-09-30T00:17:08;100103.59;;;23.05;nan
25947;BME280;13745;51.470;9.894;2023-09-30T00:19:53;100100.19;;;15.52;nan
25947;BME280;13745;51.470;9.894;2023-09-30T00:22:40;100105.53;;;15.47;nan
25947;BME280;13745;51.470;9.894;2023-09-30T00:25:25;100109.94;;;15.42;nan
25947;BME280;13745;51.470;9.894;2023-09-30T00:28:11;100116.06;;;15.40;nan
25947;BME280;13745;51.470;9.894;2023-09-30T00:30:58;100121.34;;;15.38;nan
25947;BME280;13745;51.470;9.894;2023-09-30T00:33:43;100123.16;;;15.36;nan
25947;BME280;13745;51.470;9.894;2023-09-30T00:36:28;100131.00;;;15.33;nan
25947;BME280;13745;51.470;9.894;2023-09-30T00:39:14;100123.22;;;15.33;nan
25947;BME280;13745;51.470;9.894;2023-09-30T00:42:00;100128.50;;;15.30;nan
25947;BME280;13745;51.470;9.894;2023-09-30T00:44:46;100128.59;;;15.27;nan
25947;BME280;13745;51.470;9.894;2023-09-30T00:47:31;100130.41;;;15.22;nan
25947;BME280;13745;51.470;9.894;2023-09-30T00:50:19;100130.53;;;15.18;nan
25947;BME280;13745;51.470;9.894;2023-09-30T00:53:05;100137.63;;;15.12;nan
25947;BME280;13745;51.470;9.894;2023-09-30T00:55:53;100126.38;;;15.08;nan
25947;BME280;13745;51.470;9.894;2023-09-30T00:58:40;100136.94;;;15.02;nan
25947;BME280;13745;51.470;9.894;2023-09-30T01:01:26;100146.59;;;14.96;nan
25947;BME280;13745;51.470;9.894;2023-09-30T01:04:12;100140.63;;;14.93;nan
25947;BME280;13745;51.470;9.894;2023-09-30T01:06:58;100155.44;;;14.86;nan
25947;BME280;13745;51.470;9.894;2023-09-30T01:09:44;100153.78;;;14.85;nan
25947;BME280;13745;51.470;9.894;2023-09-30T01:12:31;100138.19;;;14.80;nan
25947;BME280;13745;51.470;9.894;2023-09-30T01:15:18;100145.22;;;14.77;nan
25947;BME280;13745;51.470;9.894;2023-09-30T01:18:03;100144.38;;;14.73;nan
25947;BME280;13745;51.470;9.894;2023-09-30T01:20:49;100144.47;;;14.71;nan
25947;BME280;13745;51.470;9.894;2023-09-30T01:23:38;100148.84;;;14.67;nan
25947;BME280;13745;51.470;9.894;2023-09-30T01:26:23;100159.31;;;14.61;nan
25947;BME280;13745;51.470;9.894;2023-09-30T01:29:09;100150.75;;;14.61;nan
25947;BME280;13745;51.470;9.894;2023-09-30T01:31:55;100158.59;;;14.56;nan
25947;BME280;13745;51.470;9.894;2023-09-30T01:34:41;100170.81;;;14.53;nan
25947;BME280;13745;51.470;9.894;2023-09-30T01:37:28;100179.56;;;14.51;nan
25947;BME280;13745;51.470;9.894;2023-09-30T01:40:14;100177.91;;;14.49;nan
25947;BME280;13745;51.470;9.894;2023-09-30T01:43:02;100175.34;;;14.42;nan
25947;BME280;13745;51.470;9.894;2023-09-30T01:45:47;100182.41;;;14.37;nan
25947;BME280;13745;51.470;9.894;2023-09-30T01:48:32;100189.38;;;14.32;nan
25947;BME280;13745;51.470;9.894;2023-09-30T01:51:18;100174.66;;;14.30;nan
25947;BME280;13745;51.470;9.894;2023-09-30T01:54:03;100169.47;;;14.26;nan
25947;BME280;13745;51.470;9.894;2023-09-30T01:56:50;100160.78;;;14.23;nan
25947;BME280;13745;51.470;9.894;2023-09-30T01:59:35;100172.97;;;14.22;nan
25947;BME280;13745;51.470;9.894;2023-09-30T02:02:20;100181.69;;;14.22;nan
25947;BME280;13745;51.470;9.894;2023-09-30T02:05:06;100162.59;;;14.19;nan
25947;BME280;13745;51.470;9.894;2023-09-30T02:07:52;100176.53;;;14.18;nan
25947;BME280;13745;51.470;9.894;2023-09-30T02:10:37;100180.84;;;14.19;nan
25947;BME280;13745;51.470;9.894;2023-09-30T02:13:24;100188.69;;;14.19;nan
25947;BME280;13745;51.470;9.894;2023-09-30T02:16:12;100185.19;;;14.19;nan
25947;BME280;13745;51.470;9.894;2023-09-30T02:18:58;100177.34;;;14.20;nan
25947;BME280;13745;51.470;9.894;2023-09-30T02:21:45;100186.91;;;14.21;nan
25947;BME280;13745;51.470;9.894;2023-09-30T02:24:30;100192.13;;;14.21;nan
25947;BME280;13745;51.470;9.894;2023-09-30T02:27:16;100187.78;;;14.21;nan
25947;BME280;13745;51.470;9.894;2023-09-30T02:30:03;100186.00;;;14.22;nan
25947;BME280;13745;51.470;9.894;2023-09-30T02:32:48;100172.19;;;14.22;nan
25947;BME280;13745;51.470;9.894;2023-09-30T02:35:33;100182.66;;;14.18;nan
25947;BME280;13745;51.470;9.894;2023-09-30T02:38:18;100185.28;;;14.15;nan
25947;BME280;13745;51.470;9.894;2023-09-30T02:41:04;100176.66;;;14.14;nan
25947;BME280;13745;51.470;9.894;2023-09-30T02:43:50;100177.56;;;14.10;nan
25947;BME280;13745;51.470;9.894;2023-09-30T02:46:36;100175.06;;;14.06;nan
25947;BME280;13745;51.470;9.894;2023-09-30T02:49:21;100174.25;;;14.00;nan
25947;BME280;13745;51.470;9.894;2023-09-30T02:52:06;100183.88;;;13.95;nan
25947;BME280;13745;51.470;9.894;2023-09-30T02:54:52;100192.59;;;13.91;nan
25947;BME280;13745;51.470;9.894;2023-09-30T02:57:37;100177.91;;;13.87;nan
25947;BME280;13745;51.470;9.894;2023-09-30T03:00:23;100178.84;;;13.82;nan
25947;BME280;13745;51.470;9.894;2023-09-30T03:03:09;100170.19;;;13.80;nan
25947;BME280;13745;51.470;9.894;2023-09-30T03:05:56;100179.75;;;13.75;nan
25947;BME280;13745;51.470;9.894;2023-09-30T03:08:42;100169.47;;;13.73;nan
25947;BME280;13745;51.470;9.894;2023-09-30T03:11:27;100177.28;;;13.66;nan
25947;BME280;13745;51.470;9.894;2023-09-30T03:14:13;100195.53;;;13.64;nan
25947;BME280;13745;51.470;9.894;2023-09-30T03:16:59;100192.16;;;13.63;nan
25947;BME280;13745;51.470;9.894;2023-09-30T03:19:45;100205.22;;;13.58;nan
25947;BME280;13745;51.470;9.894;2023-09-30T03:22:30;100212.19;;;13.52;nan
25947;BME280;13745;51.470;9.894;2023-09-30T03:25:17;100194.84;;;13.51;nan
25947;BME280;13745;51.470;9.894;2023-09-30T03:28:03;100189.59;;;13.50;nan
25947;BME280;13745;51.470;9.894;2023-09-30T03:30:49;100196.53;;;13.52;nan
25947;BME280;13745;51.470;9.894;2023-09-30T03:33:34;100198.25;;;13.53;nan
25947;BME280;13745;51.470;9.894;2023-09-30T03:36:21;100201.72;;;13.54;nan
25947;BME280;13745;51.470;9.894;2023-09-30T03:39:08;100210.41;;;13.54;nan
25947;BME280;13745;51.470;9.894;2023-09-30T03:41:58;100211.25;;;13.53;nan
25947;BME280;13745;51.470;9.894;2023-09-30T03:44:44;100219.06;;;13.55;nan
25947;BME280;13745;51.470;9.894;2023-09-30T03:47:31;100220.78;;;13.55;nan
25947;BME280;13745;51.470;9.894;2023-09-30T03:50:17;100210.38;;;13.58;nan
25947;BME280;13745;51.470;9.894;2023-09-30T03:53:04;100199.09;;;13.58;nan
25947;BME280;13745;51.470;9.894;2023-09-30T03:55:51;100219.91;;;13.57;nan
25947;BME280;13745;51.470;9.894;2023-09-30T03:58:36;100224.25;;;13.59;nan
25947;BME280;13745;51.470;9.894;2023-09-30T04:01:22;100218.19;;;13.58;nan
25947;BME280;13745;51.470;9.894;2023-09-30T04:06:53;100200.81;;;13.57;nan
25947;BME280;13745;51.470;9.894;2023-09-30T04:09:40;100195.66;;;13.57;nan
25947;BME280;13745;51.470;9.894;2023-09-30T04:12:25;100199.13;;;13.54;nan
25947;BME280;13745;51.470;9.894;2023-09-30T04:15:11;100206.06;;;13.54;nan
25947;BME280;13745;51.470;9.894;2023-09-30T04:17:56;100206.97;;;13.54;nan
25947;BME280;13745;51.470;9.894;2023-09-30T04:20:41;100223.47;;;13.51;nan
25947;BME280;13745;51.470;9.894;2023-09-30T04:23:29;100214.03;;;13.43;nan
25947;BME280;13745;51.470;9.894;2023-09-30T04:26:15;100215.84;;;13.35;nan
25947;BME280;13745;51.470;9.894;2023-09-30T04:29:01;100214.97;;;13.34;nan
25947;BME280;13745;51.470;9.894;2023-09-30T04:31:54;100221.06;;;13.32;nan
25947;BME280;13745;51.470;9.894;2023-09-30T04:34:39;100219.34;;;13.31;nan
25947;BME280;13745;51.470;9.894;2023-09-30T04:37:24;100224.56;;;13.31;nan
25947;BME280;13745;51.470;9.894;2023-09-30T04:40:09;100227.16;;;13.32;nan
25947;BME280;13745;51.470;9.894;2023-09-30T04:43:00;100228.03;;;13.32;nan
25947;BME280;13745;51.470;9.894;2023-09-30T04:45:45;100223.75;;;13.31;nan
25947;BME280;13745;51.470;9.894;2023-09-30T04:48:33;100236.78;;;13.27;nan
25947;BME280;13745;51.470;9.894;2023-09-30T04:51:18;100240.25;;;13.26;nan
25947;BME280;13745;51.470;9.894;2023-09-30T04:54:04;100240.25;;;13.26;nan
25947;BME280;13745;51.470;9.894;2023-09-30T04:56:50;100245.47;;;13.26;nan
25947;BME280;13745;51.470;9.894;2023-09-30T04:59:37;100246.34;;;13.19;nan
25947;BME280;13745;51.470;9.894;2023-09-30T05:02:23;100247.25;;;13.19;nan
25947;BME280;13745;51.470;9.894;2023-09-30T05:05:08;100246.41;;;13.18;nan
25947;BME280;13745;51.470;9.894;2023-09-30T05:07:54;100242.03;;;13.15;nan
25947;BME280;13745;51.470;9.894;2023-09-30T05:10:39;100243.81;;;13.15;nan
25947;BME280;13745;51.470;9.894;2023-09-30T05:13:24;100238.63;;;13.10;nan
25947;BME280;13745;51.470;9.894;2023-09-30T05:16:11;100247.31;;;13.07;nan
25947;BME280;13745;51.470;9.894;2023-09-30T05:18:56;100251.66;;;13.08;nan
25947;BME280;13745;51.470;9.894;2023-09-30T05:21:42;100244.72;;;13.09;nan
25947;BME280;13745;51.470;9.894;2023-09-30T05:24:28;100252.53;;;13.06;nan
25947;BME280;13745;51.470;9.894;2023-09-30T05:27:14;100266.44;;;13.06;nan
25947;BME280;13745;51.470;9.894;2023-09-30T05:29:59;100254.28;;;13.05;nan
25947;BME280;13745;51.470;9.894;2023-09-30T05:32:45;100260.38;;;13.05;nan
25947;BME280;13745;51.470;9.894;2023-09-30T05:35:30;100256.94;;;13.04;nan
25947;BME280;13745;51.470;9.894;2023-09-30T05:38:16;100269.88;;;13.07;nan
25947;BME280;13745;51.470;9.894;2023-09-30T05:41:03;100264.69;;;13.08;nan
25947;BME280;13745;51.470;9.894;2023-09-30T05:43:50;100285.50;;;13.08;nan
25947;BME280;13745;51.470;9.894;2023-09-30T05:46:35;100282.91;;;13.08;nan
25947;BME280;13745;51.470;9.894;2023-09-30T05:49:21;100278.63;;;13.07;nan
25947;BME280;13745;51.470;9.894;2023-09-30T05:52:07;100279.47;;;13.03;nan
25947;BME280;13745;51.470;9.894;2023-09-30T05:54:52;100285.50;;;13.08;nan
25947;BME280;13745;51.470;9.894;2023-09-30T05:57:37;100290.69;;;13.10;nan
25947;BME280;13745;51.470;9.894;2023-09-30T06:00:23;100295.88;;;13.10;nan
25947;BME280;13745;51.470;9.894;2023-09-30T06:03:12;100294.13;;;13.13;nan
25947;BME280;13745;51.470;9.894;2023-09-30T06:05:58;100303.66;;;13.16;nan
25947;BME280;13745;51.470;9.894;2023-09-30T06:08:44;100304.53;;;13.17;nan
25947;BME280;13745;51.470;9.894;2023-09-30T06:11:30;100307.97;;;13.19;nan
25947;BME280;13745;51.470;9.894;2023-09-30T06:14:16;100308.81;;;13.25;nan
25947;BME280;13745;51.470;9.894;2023-09-30T06:17:01;100291.47;;;13.24;nan
25947;BME280;13745;51.470;9.894;2023-09-30T06:19:46;100274.06;;;13.28;nan
25947;BME280;13745;51.470;9.894;2023-09-30T06:22:34;100271.41;;;13.28;nan
25947;BME280;13745;51.470;9.894;2023-09-30T06:25:19;100282.72;;;13.31;nan
25947;BME280;13745;51.470;9.894;2023-09-30T06:28:07;100281.78;;;13.33;nan
25947;BME280;13745;51.470;9.894;2023-09-30T06:30:52;100281.75;;;13.37;nan
25947;BME280;13745;51.470;9.894;2023-09-30T06:33:38;100284.28;;;13.41;nan
25947;BME280;13745;51.470;9.894;2023-09-30T06:36:24;100287.75;;;13.49;nan
25947;BME280;13745;51.470;9.894;2023-09-30T06:39:11;100298.94;;;13.56;nan
25947;BME280;13745;51.470;9.894;2023-09-30T06:41:56;100305.84;;;13.60;nan
25947;BME280;13745;51.470;9.894;2023-09-30T06:44:41;100310.94;;;13.60;nan
25947;BME280;13745;51.470;9.894;2023-09-30T06:47:26;100305.63;;;13.80;nan
25947;BME280;13745;51.470;9.894;2023-09-30T06:50:12;100317.69;;;13.80;nan
25947;BME280;13745;51.470;9.894;2023-09-30T06:53:00;100326.31;;;13.89;nan
25947;BME280;13745;51.470;9.894;2023-09-30T06:55:46;100328.00;;;13.99;nan
25947;BME280;13745;51.470;9.894;2023-09-30T06:58:32;100331.38;;;13.99;nan
25947;BME280;13745;51.470;9.894;2023-09-30T07:01:17;100341.72;;;14.06;nan
25947;BME280;13745;51.470;9.894;2023-09-30T07:04:03;100341.66;;;14.14;nan
25947;BME280;13745;51.470;9.894;2023-09-30T07:06:48;100346.78;;;14.20;nan
25947;BME280;13745;51.470;9.894;2023-09-30T07:09:33;100344.13;;;14.32;nan
25947;BME280;13745;51.470;9.894;2023-09-30T07:12:20;100334.41;;;14.32;nan
25947;BME280;13745;51.470;9.894;2023-09-30T07:15:06;100338.72;;;14.49;nan
25947;BME280;13745;51.470;9.894;2023-09-30T07:17:52;100346.47;;;14.49;nan
25947;BME280;13745;51.470;9.894;2023-09-30T07:23:22;100362.09;;;23.05;nan
25947;BME280;13745;51.470;9.894;2023-09-30T07:26:07;100348.22;;;14.53;76.08
25947;BME280;13745;51.470;9.894;2023-09-30T07:28:53;100360.38;;;14.51;nan
25947;BME280;13745;51.470;9.894;2023-09-30T07:31:40;100356.91;;;14.52;nan
25947;BME280;13745;51.470;9.894;2023-09-30T07:34:25;100361.81;;;14.75;nan
25947;BME280;13745;51.470;9.894;2023-09-30T07:39:55;100365.59;;;23.05;nan
25947;BME280;13745;51.470;9.894;2023-09-30T07:42:40;100366.69;;;15.99;nan
25947;BME280;13745;51.470;9.894;2023-09-30T07:45:27;100373.06;;;16.28;nan
25947;BME280;13745;51.470;9.894;2023-09-30T07:48:12;100366.59;;;16.28;nan
25947;BME280;13745;51.470;9.894;2023-09-30T07:50:58;100372.31;;;16.63;nan
25947;BME280;13745;51.470;9.894;2023-09-30T07:53:43;100360.78;;;16.73;nan
25947;BME280;13745;51.470;9.894;2023-09-30T07:56:28;100368.44;;;16.82;nan
25947;BME280;13745;51.470;9.894;2023-09-30T07:59:13;100371.47;;;16.82;nan
25947;BME280;13745;51.470;9.894;2023-09-30T08:02:01;100370.22;;;17.01;nan
25947;BME280;13745;51.470;9.894;2023-09-30T08:04:48;100375.75;;;17.18;nan
25947;BME280;13745;51.470;9.894;2023-09-30T08:07:33;100384.63;;;17.41;nan
25947;BME280;13745;51.470;9.894;2023-09-30T08:10:18;100385.50;;;18.03;nan
25947;BME280;13745;51.470;9.894;2023-09-30T08:13:04;100367.03;;;18.03;nan
25947;BME280;13745;51.470;9.894;2023-09-30T08:15:49;100369.28;;;18.37;nan
25947;BME280;13745;51.470;9.894;2023-09-30T08:18:36;100360.75;;;18.80;nan
25947;BME280;13745;51.470;9.894;2023-09-30T08:21:21;100369.13;;;19.00;nan
25947;BME280;13745;51.470;9.894;2023-09-30T08:24:07;100361.03;;;19.13;nan
25947;BME280;13745;51.470;9.894;2023-09-30T08:26:53;100354.38;;;19.85;nan
25947;BME280;13745;51.470;9.894;2023-09-30T08:29:39;100361.84;;;19.85;nan
25947;BME280;13745;51.470;9.894;2023-09-30T08:32:24;100360.03;;;19.97;nan
25947;BME280;13745;51.470;9.894;2023-09-30T08:35:11;100364.88;;;20.23;nan
25947;BME280;13745;51.470;9.894;2023-09-30T08:37:58;100368.78;;;19.48;nan
25947;BME280;13745;51.470;9.894;2023-09-30T08:46:17;100380.88;;;23.05;nan
25947;BME280;13745;51.470;9.894;2023-09-30T08:49:04;100385.81;;;19.54;nan
25947;BME280;13745;51.470;9.894;2023-09-30T08:51:53;100389.91;;;19.89;nan
25947;BME280;13745;51.470;9.894;2023-09-30T08:54:39;100355.00;;;20.22;nan
25947;BME280;13745;51.470;9.894;2023-09-30T08:57:25;100336.56;;;20.40;nan
25947;BME280;13745;51.470;9.894;2023-09-30T09:00:12;100393.88;;;20.73;nan
25947;BME280;13745;51.470;9.894;2023-09-30T09:02:57;100399.09;;;21.24;nan
25947;BME280;13745;51.470;9.894;2023-09-30T09:05:43;100403.56;;;21.68;nan
25947;BME280;13745;51.470;9.894;2023-09-30T09:08:30;100396.19;;;23.04;nan
25947;BME280;13745;51.470;9.894;2023-09-30T09:11:16;100386.13;;;26.16;nan
25947;BME280;13745;51.470;9.894;2023-09-30T09:16:54;100390.69;;;22.96;nan
25947;BME280;13745;51.470;9.894;2023-09-30T09:19:40;100392.00;;;25.68;nan
25947;BME280;13745;51.470;9.894;2023-09-30T09:22:37;100382.97;;;26.29;nan
25947;BME280;13745;51.470;9.894;2023-09-30T09:25:24;100395.06;;;29.80;nan
25947;BME280;13745;51.470;9.894;2023-09-30T09:28:10;100387.75;;;32.91;nan
25947;BME280;13745;51.470;9.894;2023-09-30T09:30:55;100385.91;;;32.91;nan
25947;BME280;13745;51.470;9.894;2023-09-30T09:33:41;100390.81;;;30.29;nan
25947;BME280;13745;51.470;9.894;2023-09-30T09:36:38;100392.38;;;27.94;nan
25947;BME280;13745;51.470;9.894;2023-09-30T09:39:29;100403.50;;;26.97;nan
25947;BME280;13745;51.470;9.894;2023-09-30T09:42:26;100404.03;;;26.97;nan
25947;BME280;13745;51.470;9.894;2023-09-30T09:45:12;100394.38;;;26.75;nan
25947;BME280;13745;51.470;9.894;2023-09-30T09:47:57;100398.16;;;29.30;nan
25947;BME280;13745;51.470;9.894;2023-09-30T09:50:43;100397.69;;;30.87;nan
25947;BME280;13745;51.470;9.894;2023-09-30T09:53:34;100397.22;;;30.26;nan
25947;BME280;13745;51.470;9.894;2023-09-30T09:56:20;100391.66;;;29.75;nan
25947;BME280;13745;51.470;9.894;2023-09-30T09:59:08;100383.50;;;28.45;nan
25947;BME280;13745;51.470;9.894;2023-09-30T10:01:55;100386.50;;;28.72;nan
25947;BME280;13745;51.470;9.894;2023-09-30T10:04:41;100377.97;;;30.66;nan
25947;BME280;13745;51.470;9.894;2023-09-30T10:07:29;100141.72;;;32.40;nan
25947;BME280;13745;51.470;9.894;2023-09-30T10:10:18;100380.03;;;33.89;nan
25947;BME280;13745;51.470;9.894;2023-09-30T10:13:04;100378.00;;;34.50;nan
25947;BME280;13745;51.470;9.894;2023-09-30T10:15:51;100375.84;;;35.60;nan
25947;BME280;13745;51.470;9.894;2023-09-30T10:24:55;100373.47;;;33.24;nan
25947;BME280;13745;51.470;9.894;2023-09-30T10:27:40;100374.94;;;33.01;nan
25947;BME280;13745;51.470;9.894;2023-09-30T10:30:27;100374.00;;;35.19;nan
25947;BME280;13745;51.470;9.894;2023-09-30T10:33:14;100369.59;;;37.09;nan
25947;BME280;13745;51.470;9.894;2023-09-30T10:35:59;100376.53;;;37.89;nan
25947;BME280;13745;51.470;9.894;2023-09-30T10:38:46;100375.31;;;37.92;nan
25947;BME280;13745;51.470;9.894;2023-09-30T10:41:49;100381.00;;;38.89;nan
25947;BME280;13745;51.470;9.894;2023-09-30T10:44:34;100381.72;;;39.02;nan
25947;BME280;13745;51.470;9.894;2023-09-30T10:47:35;100363.59;;;35.41;nan
25947;BME280;13745;51.470;9.894;2023-09-30T10:53:29;100366.91;;;37.51;nan
25947;BME280;13745;51.470;9.894;2023-09-30T10:56:14;100361.41;;;37.57;nan
25947;BME280;13745;51.470;9.894;2023-09-30T10:59:00;100352.13;;;35.55;nan
25947;BME280;13745;51.470;9.894;2023-09-30T11:01:46;100360.84;;;32.99;nan
25947;BME280;13745;51.470;9.894;2023-09-30T11:04:44;100360.38;;;34.63;nan
25947;BME280;13745;51.470;9.894;2023-09-30T11:07:29;100378.22;;;36.68;nan
25947;BME280;13745;51.470;9.894;2023-09-30T11:10:17;100388.78;;;37.93;nan
25947;BME280;13745;51.470;9.894;2023-09-30T11:13:03;100384.81;;;38.35;nan
25947;BME280;13745;51.470;9.894;2023-09-30T11:15:58;100355.53;;;39.39;nan
25947;BME280;13745;51.470;9.894;2023-09-30T11:18:44;100367.38;;;40.17;nan
25947;BME280;13745;51.470;9.894;2023-09-30T11:21:29;100358.91;;;41.32;nan
25947;BME280;13745;51.470;9.894;2023-09-30T11:24:14;100367.56;;;40.33;nan
25947;BME280;13745;51.470;9.894;2023-09-30T11:27:00;100361.81;;;40.32;nan
25947;BME280;13745;51.470;9.894;2023-09-30T11:29:48;100355.31;;;42.45;nan
25947;BME280;13745;51.470;9.894;2023-09-30T11:32:33;100349.59;;;44.20;nan
25947;BME280;13745;51.470;9.894;2023-09-30T11:35:21;100351.84;;;44.75;nan
25947;BME280;13745;51.470;9.894;2023-09-30T11:38:06;100349.09;;;41.75;nan
25947;BME280;13745;51.470;9.894;2023-09-30T11:40:59;100347.38;;;42.50;nan
25947;BME280;13745;51.470;9.894;2023-09-30T11:43:59;100345.22;;;44.58;nan
25947;BME280;13745;51.470;9.894;2023-09-30T11:46:50;100351.16;;;46.29;nan
25947;BME280;13745;51.470;9.894;2023-09-30T11:49:36;100356.56;;;47.38;nan
25947;BME280;13745;51.470;9.894;2023-09-30T11:52:25;100345.94;;;48.28;nan
25947;BME280;13745;51.470;9.894;2023-09-30T11:55:11;100344.59;;;49.00;nan
25947;BME280;13745;51.470;9.894;2023-09-30T11:57:56;100329.88;;;45.45;nan
25947;BME280;13745;51.470;9.894;2023-09-30T12:00:43;100338.06;;;42.92;nan
25947;BME280;13745;51.470;9.894;2023-09-30T12:03:28;100336.59;;;42.92;nan
25947;BME280;13745;51.470;9.894;2023-09-30T12:06:13;100329.41;;;39.64;nan
25947;BME280;13745;51.470;9.894;2023-09-30T12:09:00;100335.53;;;36.54;nan
25947;BME280;13745;51.470;9.894;2023-09-30T12:11:46;100337.00;;;34.18;nan
25947;BME280;13745;51.470;9.894;2023-09-30T12:14:31;100336.31;;;32.38;nan
25947;BME280;13745;51.470;9.894;2023-09-30T12:17:18;100333.00;;;31.11;nan
25947;BME280;13745;51.470;9.894;2023-09-30T12:20:06;100330.84;;;33.50;nan
25947;BME280;13745;51.470;9.894;2023-09-30T12:22:52;100334.69;;;42.84;nan
25947;BME280;13745;51.470;9.894;2023-09-30T12:25:38;100332.16;;;45.23;nan
25947;BME280;13745;51.470;9.894;2023-09-30T12:28:23;100334.25;;;46.92;nan
25947;BME280;13745;51.470;9.894;2023-09-30T12:31:07;100333.84;;;48.01;nan
25947;BME280;13745;51.470;9.894;2023-09-30T12:33:55;100331.03;;;48.53;nan
25947;BME280;13745;51.470;9.894;2023-09-30T12:36:41;100344.69;;;49.05;nan
25947;BME280;13745;51.470;9.894;2023-09-30T12:39:27;100343.84;;;49.55;nan
25947;BME280;13745;51.470;9.894;2023-09-30T12:42:14;100340.44;;;49.86;nan
25947;BME280;13745;51.470;9.894;2023-09-30T12:44:59;100333.59;;;50.11;nan
25947;BME280;13745;51.470;9.894;2023-09-30T12:47:44;100324.16;;;50.07;nan
25947;BME280;13745;51.470;9.894;2023-09-30T12:50:32;100312.69;;;49.98;nan
25947;BME280;13745;51.470;9.894;2023-09-30T12:53:17;100311.63;;;48.19;nan
25947;BME280;13745;51.470;9.894;2023-09-30T12:58:47;100299.34;;;22.92;nan
25947;BME280;13745;51.470;9.894;2023-09-30T13:01:32;100304.88;;;41.17;nan
25947;BME280;13745;51.470;9.894;2023-09-30T13:04:17;100303.59;;;40.45;nan
25947;BME280;13745;51.470;9.894;2023-09-30T13:07:04;100289.97;;;38.30;nan
25947;BME280;13745;51.470;9.894;2023-09-30T13:09:49;100289.09;;;36.27;nan
25947;BME280;13745;51.470;9.894;2023-09-30T13:12:33;100290.41;;;35.15;nan
25947;BME280;13745;51.470;9.894;2023-09-30T13:15:18;100288.31;;;34.30;nan
25947;BME280;13745;51.470;9.894;2023-09-30T13:18:03;100283.75;;;33.30;nan
25947;BME280;13745;51.470;9.894;2023-09-30T13:20:49;100279.25;;;32.03;nan
25947;BME280;13745;51.470;9.894;2023-09-30T13:23:37;100289.69;;;31.31;nan
25947;BME280;13745;51.470;9.894;2023-09-30T13:26:22;100279.41;;;30.82;nan
25947;BME280;13745;51.470;9.894;2023-09-30T13:29:07;100282.50;;;30.43;nan
25947;BME280;13745;51.470;9.894;2023-09-30T13:31:53;100286.28;;;30.28;nan
25947;BME280;13745;51.470;9.894;2023-09-30T13:34:38;100276.28;;;30.25;nan
25947;BME280;13745;51.470;9.894;2023-09-30T13:37:23;100269.16;;;30.27;nan
25947;BME280;13745;51.470;9.894;2023-09-30T13:40:14;100284.19;;;30.16;nan
25947;BME280;13745;51.470;9.894;2023-09-30T13:43:02;100283.22;;;29.95;nan
25947;BME280;13745;51.470;9.894;2023-09-30T13:45:48;100282.34;;;30.41;nan
25947;BME280;13745;51.470;9.894;2023-09-30T13:48:34;100272.41;;;30.40;nan
25947;BME280;13745;51.470;9.894;2023-09-30T13:51:18;100265.09;;;29.75;nan
25947;BME280;13745;51.470;9.894;2023-09-30T13:54:03;100268.03;;;29.08;nan
25947;BME280;13745;51.470;9.894;2023-09-30T13:56:49;100263.66;;;28.58;nan
25947;BME280;13745;51.470;9.894;2023-09-30T13:59:34;100264.44;;;28.57;nan
25947;BME280;13745;51.470;9.894;2023-09-30T14:02:19;100267.38;;;28.70;nan
25947;BME280;13745;51.470;9.894;2023-09-30T14:05:04;100260.59;;;28.78;nan
25947;BME280;13745;51.470;9.894;2023-09-30T14:07:51;100261.31;;;28.74;nan
25947;BME280;13745;51.470;9.894;2023-09-30T14:10:36;100259.78;;;28.52;nan
25947;BME280;13745;51.470;9.894;2023-09-30T14:13:22;100259.09;;;27.75;nan
25947;BME280;13745;51.470;9.894;2023-09-30T14:16:07;100257.06;;;27.20;nan
25947;BME280;13745;51.470;9.894;2023-09-30T14:18:52;100246.66;;;26.84;nan
25947;BME280;13745;51.470;9.894;2023-09-30T14:21:37;100260.38;;;26.54;nan
25947;BME280;13745;51.470;9.894;2023-09-30T14:24:22;100257.25;;;26.33;nan
25947;BME280;13745;51.470;9.894;2023-09-30T14:27:06;100247.81;;;26.13;nan
25947;BME280;13745;51.470;9.894;2023-09-30T14:29:54;100260.53;;;25.94;nan
25947;BME280;13745;51.470;9.894;2023-09-30T14:32:39;100252.25;;;25.75;nan
25947;BME280;13745;51.470;9.894;2023-09-30T14:35:24;100255.53;;;25.53;nan
25947;BME280;13745;51.470;9.894;2023-09-30T14:38:09;100255.09;;;25.26;nan
25947;BME280;13745;51.470;9.894;2023-09-30T14:40:55;100243.63;;;25.04;nan
25947;BME280;13745;51.470;9.894;2023-09-30T14:43:40;100242.56;;;24.87;nan
25947;BME280;13745;51.470;9.894;2023-09-30T14:46:26;100243.69;;;24.76;nan
25947;BME280;13745;51.470;9.894;2023-09-30T14:49:11;100239.75;;;24.72;nan
25947;BME280;13745;51.470;9.894;2023-09-30T14:51:56;100244.50;;;24.63;nan
25947;BME280;13745;51.470;9.894;2023-09-30T14:54:41;100239.63;;;24.42;nan
25947;BME280;13745;51.470;9.894;2023-09-30T14:57:26;100242.84;;;24.34;nan
25947;BME280;13745;51.470;9.894;2023-09-30T15:00:12;100243.97;;;24.55;nan
25947;BME280;13745;51.470;9.894;2023-09-30T15:02:59;100234.53;;;24.23;nan
25947;BME280;13745;51.470;9.894;2023-09-30T15:05:44;100235.78;;;23.82;nan
25947;BME280;13745;51.470;9.894;2023-09-30T15:08:29;100242.88;;;23.60;nan
25947;BME280;13745;51.470;9.894;2023-09-30T15:11:15;100231.69;;;23.19;nan
25947;BME280;13745;51.470;9.894;2023-09-30T15:14:00;100230.69;;;23.05;nan
25947;BME280;13745;51.470;9.894;2023-09-30T15:16:46;100222.56;;;23.05;nan
25947;BME280;13745;51.470;9.894;2023-09-30T15:19:32;100218.19;;;22.96;nan
25947;BME280;13745;51.470;9.894;2023-09-30T15:22:17;100213.81;;;22.72;nan